Time;durP1;ratioP1;P1;durP2;ratioP2;P2;SDS_P1;SDS_P2;PMS_P1;PMS_P2;Temp;Humidity;BMP_temperature;BMP_pressure;BME280_temperature;BME280_humidity;BME280_pressure;Samples;Min_cycle;Max_cycle;Signal;HPM_P1;HPM_P2
2022/06/18 00:00:23;;;;;;;1999.90;999.90;;;26.00;80.20;;;;;;4942606;29;20439;-85
2022/06/18 00:02:49;;;;;;;1999.90;999.90;;;26.00;80.40;;;;;;4951878;29;20483;-74
2022/06/18 00:05:17;;;;;;;1999.90;999.90;;;26.00;80.30;;;;;;4952552;29;20501;-86
2022/06/18 00:07:47;;;;;;;1999.90;999.90;;;25.90;80.30;;;;;;4947842;29;20116;-75
2022/06/18 00:10:24;;;;;;;1999.90;999.90;;;25.90;80.60;;;;;;4951672;29;20030;-75
2022/06/18 00:15:39;;;;;;;1999.90;999.90;;;25.80;80.70;;;;;;4968858;29;20042;-84
2022/06/18 00:18:13;;;;;;;1999.90;999.90;;;25.80;80.70;;;;;;4938062;29;20082;-86
2022/06/18 00:20:40;;;;;;;1999.90;999.90;;;25.70;81.00;;;;;;4946071;29;20147;-74
2022/06/18 00:23:13;;;;;;;1999.90;999.90;;;25.70;81.10;;;;;;4936716;29;20039;-74
2022/06/18 00:25:39;;;;;;;;;;;25.60;80.80;;;;;;4955638;29;20027;-85
2022/06/18 00:28:14;;;;;;;1999.90;999.90;;;25.60;81.20;;;;;;4955426;29;20337;-74
2022/06/18 00:30:41;;;;;;;1999.90;999.90;;;25.60;81.10;;;;;;4955455;29;20031;-74
2022/06/18 00:33:07;;;;;;;1999.90;999.90;;;25.60;81.00;;;;;;4955256;29;20077;-86
2022/06/18 00:35:34;;;;;;;1999.90;999.90;;;25.50;80.80;;;;;;4954740;28;20042;-86
2022/06/18 00:38:04;;;;;;;1999.90;999.90;;;25.50;80.60;;;;;;4937918;29;20031;-74
2022/06/18 00:40:43;;;;;;;1999.90;999.90;;;25.50;80.70;;;;;;4955511;29;20035;-86
2022/06/18 00:43:23;;;;;;;1999.90;999.90;;;25.40;80.40;;;;;;4937754;29;20027;-86
2022/06/18 00:45:52;;;;;;;1999.90;999.90;;;25.40;80.50;;;;;;4951916;29;20086;-74
2022/06/18 00:48:39;;;;;;;1999.90;999.90;;;25.30;80.40;;;;;;4953393;29;20090;-74
2022/06/18 00:51:17;;;;;;;1999.90;999.90;;;25.30;80.80;;;;;;4954963;29;20050;-74
2022/06/18 00:53:51;;;;;;;1999.90;999.90;;;25.20;80.20;;;;;;4955012;29;20454;-74
2022/06/18 00:56:45;;;;;;;1999.90;999.90;;;25.20;80.50;;;;;;4955312;29;20486;-86
2022/06/18 00:59:23;;;;;;;1999.90;999.90;;;25.20;80.20;;;;;;4939376;29;20043;-75
2022/06/18 01:01:50;;;;;;;1999.90;999.90;;;25.20;80.10;;;;;;4943750;29;20042;-86
2022/06/18 01:04:25;;;;;;;1999.90;999.90;;;25.10;80.00;;;;;;4951831;29;20026;-74
2022/06/18 01:07:02;;;;;;;1999.90;999.90;;;25.10;80.70;;;;;;4954791;29;20494;-86
2022/06/18 01:09:28;;;;;;;1999.90;999.90;;;25.00;80.20;;;;;;4955072;29;20034;-86
2022/06/18 01:11:56;;;;;;;1999.90;999.90;;;25.00;80.70;;;;;;4948579;29;20372;-74
2022/06/18 01:14:23;;;;;;;1999.90;999.90;;;25.00;80.60;;;;;;4954164;29;20023;-74
2022/06/18 01:16:49;;;;;;;1999.90;999.90;;;24.90;80.80;;;;;;4954773;29;20402;-86
2022/06/18 01:19:43;;;;;;;1999.90;999.90;;;24.90;80.60;;;;;;4954664;29;20032;-85
2022/06/18 01:22:47;;;;;;;1999.90;999.90;;;24.90;81.00;;;;;;4949720;29;20051;-85
2022/06/18 01:25:13;;;;;;;1999.90;999.90;;;24.80;80.90;;;;;;4954489;29;20019;-75
2022/06/18 01:27:39;;;;;;;1999.90;999.90;;;24.80;80.80;;;;;;4957675;29;20038;-85
2022/06/18 01:30:14;;;;;;;1999.90;999.90;;;24.80;80.90;;;;;;4965855;29;20027;-74
2022/06/18 01:32:41;;;;;;;1999.90;999.90;;;24.80;80.90;;;;;;4954643;29;20514;-74
2022/06/18 01:35:08;;;;;;;1999.90;999.90;;;24.90;80.70;;;;;;4937525;29;20028;-74
2022/06/18 01:37:35;;;;;;;1999.90;999.90;;;24.90;80.60;;;;;;4954342;29;20031;-74
2022/06/18 01:40:01;;;;;;;1999.90;999.90;;;24.90;80.20;;;;;;4954416;29;20031;-85
2022/06/18 01:42:36;;;;;;;1999.90;999.90;;;25.00;80.40;;;;;;4946956;29;20024;-85
2022/06/18 01:45:10;;;;;;;1999.90;999.90;;;24.90;80.70;;;;;;4954601;29;20015;-85
2022/06/18 01:48:08;;;;;;;1999.90;999.90;;;24.90;80.60;;;;;;4955000;28;20033;-85
2022/06/18 01:50:43;;;;;;;1999.90;999.90;;;24.80;80.70;;;;;;4958431;29;20089;-74
2022/06/18 01:53:30;;;;;;;1999.90;999.90;;;24.70;81.30;;;;;;4957946;29;20142;-86
2022/06/18 01:56:02;;;;;;;1999.90;999.90;;;24.70;81.40;;;;;;4958159;29;20035;-74
2022/06/18 01:58:35;;;;;;;1999.90;999.90;;;24.60;81.90;;;;;;4958061;29;20106;-74
2022/06/18 02:01:01;;;;;;;;;;;24.50;82.00;;;;;;4958432;29;20506;-74
2022/06/18 02:03:27;;;;;;;1999.90;999.90;;;24.40;82.40;;;;;;4950862;29;19945;-74
2022/06/18 02:05:54;;;;;;;1999.90;999.90;;;24.30;82.70;;;;;;4957682;29;20501;-85
2022/06/18 02:08:20;;;;;;;1999.90;999.90;;;24.20;82.80;;;;;;4937309;29;20539;-86
2022/06/18 02:10:57;;;;;;;1999.90;999.90;;;24.20;82.90;;;;;;4944716;29;20035;-75
2022/06/18 02:13:27;;;;;;;1999.90;999.90;;;24.10;83.00;;;;;;4958083;29;20106;-74
2022/06/18 02:15:55;;;;;;;1999.90;999.90;;;24.10;83.10;;;;;;4957570;29;20031;-75
2022/06/18 02:18:21;;;;;;;1999.90;999.90;;;24.10;83.10;;;;;;4957933;29;20109;-86
2022/06/18 02:20:53;;;;;;;1999.90;999.90;;;24.20;82.90;;;;;;4957076;29;20036;-85
2022/06/18 02:23:21;;;;;;;1999.90;999.90;;;24.10;82.80;;;;;;4957180;29;20047;-85
2022/06/18 02:25:47;;;;;;;1999.90;999.90;;;24.10;82.90;;;;;;4957720;29;20034;-86
2022/06/18 02:28:20;;;;;;;1999.90;999.90;;;24.10;82.70;;;;;;4957712;29;20105;-74
2022/06/18 02:30:45;;;;;;;1999.90;999.90;;;24.20;83.00;;;;;;4957623;29;20083;-86
2022/06/18 02:33:28;;;;;;;1999.90;999.90;;;24.20;82.60;;;;;;4957521;29;20039;-85
2022/06/18 02:35:55;;;;;;;1999.90;999.90;;;24.20;82.50;;;;;;4958218;29;20016;-74
2022/06/18 02:38:22;;;;;;;1999.90;999.90;;;24.20;82.60;;;;;;4951574;29;20023;-85
2022/06/18 02:40:48;;;;;;;1999.90;999.90;;;24.20;82.70;;;;;;4957587;29;20110;-85
2022/06/18 02:43:16;;;;;;;1999.90;999.90;;;24.20;82.70;;;;;;4956762;29;20554;-74
2022/06/18 02:45:44;;;;;;;1999.90;999.90;;;24.20;82.90;;;;;;4947324;29;20090;-74
2022/06/18 02:48:11;;;;;;;1999.90;999.90;;;24.10;82.80;;;;;;4939792;29;20553;-86
2022/06/18 02:50:40;;;;;;;1999.90;999.90;;;24.10;83.20;;;;;;4940214;29;20027;-74
2022/06/18 02:53:09;;;;;;;1999.90;999.90;;;24.00;83.00;;;;;;4956709;29;20155;-86
2022/06/18 02:55:45;;;;;;;1999.90;999.90;;;24.10;83.20;;;;;;4957476;29;20051;-74
2022/06/18 02:58:17;;;;;;;1999.90;999.90;;;24.00;83.40;;;;;;4954923;28;20526;-85
2022/06/18 03:00:47;;;;;;;1999.90;999.90;;;24.00;83.20;;;;;;4951033;29;20483;-74
2022/06/18 03:03:17;;;;;;;1999.90;999.90;;;24.00;83.40;;;;;;4949530;29;20023;-85
2022/06/18 03:05:43;;;;;;;1999.90;999.90;;;23.90;83.30;;;;;;4949528;29;20024;-85
2022/06/18 03:08:10;;;;;;;1999.90;999.90;;;24.00;83.30;;;;;;4939621;29;20512;-74
2022/06/18 03:13:21;;;;;;;1999.90;999.90;;;24.00;83.50;;;;;;4957153;29;20034;-74
2022/06/18 03:15:49;;;;;;;1999.90;999.90;;;24.00;83.40;;;;;;4956539;29;20027;-74
2022/06/18 03:18:17;;;;;;;1999.90;999.90;;;24.00;83.60;;;;;;4956800;29;20030;-74
2022/06/18 03:21:01;;;;;;;1999.90;999.90;;;23.90;83.40;;;;;;4956499;29;20031;-74
2022/06/18 03:23:27;;;;;;;1999.90;999.90;;;23.90;83.80;;;;;;4956267;29;20035;-85
2022/06/18 03:25:53;;;;;;;1999.90;999.90;;;23.80;84.10;;;;;;4956584;29;20024;-85
2022/06/18 03:28:22;;;;;;;1999.90;999.90;;;23.70;84.30;;;;;;4956585;29;20039;-74
2022/06/18 03:30:48;;;;;;;1999.90;999.90;;;23.60;84.70;;;;;;4956713;29;20015;-85
2022/06/18 03:33:14;;;;;;;1999.90;999.90;;;23.60;84.80;;;;;;4956488;29;20029;-85
2022/06/18 03:35:43;;;;;;;1999.90;999.90;;;23.60;84.90;;;;;;4956475;29;20502;-86
2022/06/18 03:38:10;;;;;;;1999.90;999.90;;;23.50;85.10;;;;;;4950070;29;20051;-75
2022/06/18 03:40:36;;;;;;;1999.90;999.90;;;23.40;85.20;;;;;;4956644;29;20102;-86
2022/06/18 03:43:02;;;;;;;1999.90;999.90;;;23.40;85.40;;;;;;4956080;29;20395;-85
2022/06/18 03:45:30;;;;;;;1999.90;999.90;;;23.30;86.10;;;;;;4957976;29;20028;-86
2022/06/18 03:47:56;;;;;;;1999.90;999.90;;;23.30;85.70;;;;;;4952099;29;20031;-85
2022/06/18 03:50:22;;;;;;;1999.90;999.90;;;23.20;85.90;;;;;;4939169;29;20077;-74
2022/06/18 03:52:48;;;;;;;1999.90;999.90;;;23.10;86.20;;;;;;4938451;29;20514;-74
2022/06/18 03:55:16;;;;;;;1999.90;999.90;;;23.00;86.50;;;;;;4956252;29;20023;-86
2022/06/18 03:57:42;;;;;;;1999.90;999.90;;;23.00;86.80;;;;;;4956029;29;20035;-86
2022/06/18 04:00:11;;;;;;;1999.90;999.90;;;23.00;87.80;;;;;;4938577;29;20066;-86
2022/06/18 04:02:36;;;;;;;1999.90;999.90;;;23.00;87.40;;;;;;4948485;29;20032;-74
2022/06/18 04:05:02;;;;;;;1999.90;999.90;;;23.00;87.20;;;;;;4955962;29;20044;-86
2022/06/18 04:07:28;;;;;;;1999.90;999.90;;;23.00;87.10;;;;;;4955664;29;20063;-74
2022/06/18 04:09:54;;;;;;;1999.90;999.90;;;23.00;87.30;;;;;;4953791;28;20023;-85
2022/06/18 04:12:20;;;;;;;1999.90;999.90;;;23.00;87.60;;;;;;4951469;29;20034;-85
2022/06/18 04:14:46;;;;;;;1999.90;999.90;;;23.00;87.20;;;;;;4955650;29;20050;-85
2022/06/18 04:17:15;;;;;;;1999.90;999.90;;;22.90;87.50;;;;;;4955549;29;20058;-85
2022/06/18 04:19:42;;;;;;;1999.90;999.90;;;22.90;87.80;;;;;;4938190;29;20050;-74
2022/06/18 04:22:08;;;;;;;1999.90;999.90;;;22.90;87.80;;;;;;4937937;29;20058;-86
2022/06/18 04:24:34;;;;;;;1999.90;999.90;;;22.80;88.00;;;;;;4954910;29;20394;-86
2022/06/18 04:27:00;;;;;;;1999.90;999.90;;;22.70;88.20;;;;;;4955541;29;20032;-74
2022/06/18 04:29:28;;;;;;;1999.90;999.90;;;22.70;88.30;;;;;;4955557;29;20027;-74
2022/06/18 04:31:54;;;;;;;1999.90;999.90;;;22.70;88.50;;;;;;4954657;29;20027;-78
2022/06/18 04:34:19;;;;;;;1999.90;999.90;;;22.70;88.60;;;;;;4955462;29;20094;-85
2022/06/18 04:36:45;;;;;;;1999.90;999.90;;;22.70;88.80;;;;;;4955300;29;20415;-85
2022/06/18 04:39:12;;;;;;;1999.90;999.90;;;22.70;88.70;;;;;;4949917;29;20054;-74
2022/06/18 04:41:38;;;;;;;1999.90;999.90;;;22.70;89.10;;;;;;4952638;29;20031;-74
2022/06/18 04:44:04;;;;;;;1999.90;999.90;;;22.70;88.90;;;;;;4950399;29;20028;-74
2022/06/18 04:46:30;;;;;;;1999.90;999.90;;;22.70;89.00;;;;;;4950863;29;20043;-86
2022/06/18 04:48:56;;;;;;;1999.90;999.90;;;22.60;89.30;;;;;;4945463;29;20034;-86
2022/06/18 04:51:21;;;;;;;1999.90;999.90;;;22.60;89.70;;;;;;4955457;29;20035;-74
2022/06/18 04:53:48;;;;;;;1999.90;999.90;;;22.60;90.00;;;;;;4955008;29;20485;-85
2022/06/18 04:56:14;;;;;;;1999.90;999.90;;;22.60;89.90;;;;;;4955374;29;20050;-74
2022/06/18 04:58:39;;;;;;;1999.90;999.90;;;22.60;90.10;;;;;;4954945;29;20031;-74
2022/06/18 05:01:05;;;;;;;1999.90;999.90;;;22.60;90.10;;;;;;4954748;29;20179;-85
2022/06/18 05:03:32;;;;;;;1999.90;999.90;;;22.70;90.20;;;;;;4947422;29;20486;-86
2022/06/18 05:05:58;;;;;;;1999.90;999.90;;;22.60;90.20;;;;;;4954544;29;20569;-74
2022/06/18 05:08:25;;;;;;;1999.90;999.90;;;22.70;90.10;;;;;;4954889;29;20020;-74
2022/06/18 05:10:51;;;;;;;1999.90;999.90;;;22.70;90.20;;;;;;4949020;29;20035;-85
2022/06/18 05:13:16;;;;;;;1999.90;999.90;;;22.70;90.10;;;;;;4955015;29;20027;-86
2022/06/18 05:15:42;;;;;;;1999.90;999.90;;;22.70;90.40;;;;;;4954518;29;20119;-86
2022/06/18 05:18:13;;;;;;;1999.90;999.90;;;22.70;90.30;;;;;;4955167;29;20390;-86
2022/06/18 05:20:39;;;;;;;1999.90;999.90;;;22.70;90.40;;;;;;4954695;29;20094;-74
2022/06/18 05:23:05;;;;;;;1999.90;999.90;;;22.80;90.30;;;;;;4953654;28;20511;-86
2022/06/18 05:25:30;;;;;;;1999.90;999.90;;;22.80;90.40;;;;;;4937663;29;20031;-86
2022/06/18 05:27:56;;;;;;;1999.90;999.90;;;22.80;90.40;;;;;;4954555;29;20023;-85
2022/06/18 05:30:25;;;;;;;1999.90;999.90;;;22.80;90.50;;;;;;4954719;29;20111;-85
2022/06/18 05:32:51;;;;;;;1999.90;999.90;;;22.90;90.40;;;;;;4937062;29;20398;-74
2022/06/18 05:35:17;;;;;;;1999.90;999.90;;;23.00;90.40;;;;;;4954677;28;20043;-85
2022/06/18 05:37:43;;;;;;;1999.90;999.90;;;23.00;90.20;;;;;;4933935;29;20514;-85
2022/06/18 05:40:11;;;;;;;1999.90;999.90;;;23.10;90.20;;;;;;4931952;29;20122;-86
2022/06/18 05:42:37;;;;;;;1999.90;999.90;;;23.20;90.10;;;;;;4928249;29;20027;-85
2022/06/18 05:45:03;;;;;;;1999.90;999.90;;;23.30;90.10;;;;;;4954590;29;20099;-74
2022/06/18 05:47:31;;;;;;;1999.90;999.90;;;23.40;89.90;;;;;;4948017;29;20170;-74
2022/06/18 05:49:57;;;;;;;1999.90;999.90;;;23.50;89.60;;;;;;4941327;29;20130;-85
2022/06/18 05:52:24;;;;;;;1999.90;999.90;;;23.60;89.60;;;;;;4954410;29;20133;-85
2022/06/18 05:54:52;;;;;;;1999.90;999.90;;;23.60;89.50;;;;;;4961782;29;20031;-85
2022/06/18 05:57:19;;;;;;;1999.90;999.90;;;23.70;89.50;;;;;;4955614;29;20039;-85
2022/06/18 05:59:46;;;;;;;1999.90;999.90;;;23.80;89.10;;;;;;4954090;29;20028;-74
2022/06/18 06:02:14;;;;;;;1999.90;999.90;;;23.90;88.70;;;;;;4954053;29;20494;-84
2022/06/18 06:04:42;;;;;;;1999.90;999.90;;;24.00;88.40;;;;;;4954409;29;20059;-74
2022/06/18 06:07:20;;;;;;;1999.90;999.90;;;24.10;87.80;;;;;;4954221;29;20028;-85
2022/06/18 06:12:31;;;;;;;1999.90;999.90;;;24.40;87.20;;;;;;4951903;29;20054;-84
2022/06/18 06:14:57;;;;;;;1999.90;999.90;;;24.50;86.60;;;;;;4954205;29;20482;-84
2022/06/18 06:17:25;;;;;;;1999.90;999.90;;;24.70;85.90;;;;;;4953961;29;20406;-74
2022/06/18 06:19:52;;;;;;;1999.90;999.90;;;24.80;85.70;;;;;;4954150;29;20526;-83
2022/06/18 06:22:18;;;;;;;1999.90;999.90;;;24.90;85.20;;;;;;4936569;29;20110;-74
2022/06/18 06:24:44;;;;;;;1999.90;999.90;;;25.10;84.70;;;;;;4953792;29;20119;-83
2022/06/18 06:27:10;;;;;;;1999.90;999.90;;;25.20;84.30;;;;;;4954146;29;20498;-74
2022/06/18 06:29:36;;;;;;;1999.90;999.90;;;25.40;84.10;;;;;;4954138;29;20401;-74
2022/06/18 06:32:02;;;;;;;1999.90;999.90;;;25.50;83.60;;;;;;4953821;29;20027;-84
2022/06/18 06:34:28;;;;;;;1999.90;999.90;;;25.60;83.20;;;;;;4956158;28;20032;-84
2022/06/18 06:36:56;;;;;;;1999.90;999.90;;;25.80;83.60;;;;;;4957556;29;20031;-84
2022/06/18 06:39:22;;;;;;;1999.90;999.90;;;26.00;82.10;;;;;;4951964;29;20023;-74
2022/06/18 06:41:47;;;;;;;1999.90;999.90;;;26.20;82.20;;;;;;4953483;29;20028;-74
2022/06/18 06:44:13;;;;;;;1999.90;999.90;;;26.40;81.80;;;;;;4953805;29;20020;-83
2022/06/18 06:46:39;;;;;;;1999.90;999.90;;;26.50;80.70;;;;;;4951691;29;20016;-83
2022/06/18 06:49:04;;;;;;;1999.90;999.90;;;26.70;79.90;;;;;;4957231;29;20394;-84
2022/06/18 06:51:34;;;;;;;1999.90;999.90;;;26.90;79.50;;;;;;4957197;29;20027;-84
2022/06/18 06:54:00;;;;;;;1999.90;999.90;;;27.10;78.70;;;;;;4957042;29;20062;-74
2022/06/18 06:59:10;;;;;;;1999.90;999.90;;;27.50;78.20;;;;;;4957231;29;20038;-84
2022/06/18 07:01:36;;;;;;;1999.90;999.90;;;27.70;77.10;;;;;;4937360;29;20031;-84
2022/06/18 07:04:04;;;;;;;1999.90;999.90;;;27.90;77.70;;;;;;4951797;29;20549;-83
2022/06/18 07:06:30;;;;;;;1999.90;999.90;;;28.10;76.80;;;;;;4956907;29;20027;-84
2022/06/18 07:08:55;;;;;;;1999.90;999.90;;;28.30;76.00;;;;;;4957095;29;20023;-74
2022/06/18 07:11:22;;;;;;;1999.90;999.90;;;28.40;75.90;;;;;;4950784;29;20387;-86
2022/06/18 07:13:47;;;;;;;1999.90;999.90;;;28.60;75.80;;;;;;4955755;29;20546;-86
2022/06/18 07:16:15;;;;;;;1999.90;999.90;;;28.80;75.50;;;;;;4956777;29;20038;-75
2022/06/18 07:18:42;;;;;;;1999.90;999.90;;;28.90;75.90;;;;;;4956718;29;20062;-86
2022/06/18 07:21:15;;;;;;;1999.90;999.90;;;29.20;75.20;;;;;;4956276;29;20030;-74
2022/06/18 07:23:41;;;;;;;1999.90;999.90;;;29.40;75.50;;;;;;4948845;29;20078;-86
2022/06/18 07:26:10;;;;;;;1999.90;999.90;;;29.70;74.40;;;;;;4955875;29;20059;-86
2022/06/18 07:28:36;;;;;;;1999.90;999.90;;;30.00;73.80;;;;;;4956371;29;20106;-86
2022/06/18 07:31:03;;;;;;;1999.90;999.90;;;30.50;72.90;;;;;;4956715;29;20022;-86
2022/06/18 07:33:32;;;;;;;1999.90;999.90;;;31.80;71.60;;;;;;4939017;29;20078;-75
2022/06/18 07:35:57;;;;;;;1999.90;999.90;;;33.50;68.60;;;;;;4956216;29;20031;-87
2022/06/18 07:38:23;;;;;;;1999.90;999.90;;;34.50;67.00;;;;;;4950598;29;20150;-85
2022/06/18 07:40:54;;;;;;;1999.90;999.90;;;35.30;66.90;;;;;;4956601;29;20082;-84
2022/06/18 07:43:25;;;;;;;1999.90;999.90;;;35.80;65.60;;;;;;4956097;29;20043;-85
2022/06/18 07:45:50;;;;;;;1999.90;999.90;;;35.70;65.00;;;;;;4952581;28;20035;-76
2022/06/18 07:48:17;;;;;;;1999.90;999.90;;;36.10;65.90;;;;;;4953159;29;20379;-87
2022/06/18 07:50:46;;;;;;;1999.90;999.90;;;36.30;64.60;;;;;;4938930;29;20504;-86
2022/06/18 07:53:21;;;;;;;1999.90;999.90;;;36.60;64.90;;;;;;4956221;29;20047;-85
2022/06/18 07:55:47;;;;;;;1999.90;999.90;;;36.50;64.40;;;;;;4956029;29;20497;-76
2022/06/18 07:58:13;;;;;;;1999.90;999.90;;;36.30;64.60;;;;;;4955806;29;20019;-86
2022/06/18 08:00:39;;;;;;;1999.90;999.90;;;36.50;65.10;;;;;;4954184;29;20031;-76
2022/06/18 08:03:06;;;;;;;1999.90;999.90;;;37.50;65.30;;;;;;4948286;29;20030;-88
2022/06/18 08:05:32;;;;;;;1999.90;999.90;;;37.70;63.80;;;;;;4956078;29;20082;-85
2022/06/18 08:07:58;;;;;;;1999.90;999.90;;;38.20;63.70;;;;;;4955648;29;20011;-79
2022/06/18 08:10:24;;;;;;;1999.90;999.90;;;38.50;63.00;;;;;;4950353;29;20364;-76
2022/06/18 08:12:49;;;;;;;1999.90;999.90;;;38.70;62.60;;;;;;4955101;29;20028;-85
2022/06/18 08:15:15;;;;;;;1999.90;999.90;;;39.30;63.30;;;;;;4955519;29;20031;-86
2022/06/18 08:17:41;;;;;;;1999.90;999.90;;;39.70;62.20;;;;;;4955580;29;20035;-84
2022/06/18 08:20:08;;;;;;;1999.90;999.90;;;40.00;62.00;;;;;;4955724;29;20082;-76
2022/06/18 08:22:36;;;;;;;1999.90;999.90;;;40.70;62.50;;;;;;4955173;29;20024;-86
2022/06/18 08:25:03;;;;;;;1999.90;999.90;;;40.80;61.20;;;;;;4954812;29;20035;-85
2022/06/18 08:27:29;;;;;;;1999.90;999.90;;;40.90;61.10;;;;;;4955507;29;20492;-86
2022/06/18 08:29:55;;;;;;;1999.90;999.90;;;40.90;61.00;;;;;;4955461;29;20027;-84
2022/06/18 08:32:22;;;;;;;1999.90;999.90;;;40.50;61.20;;;;;;4955087;29;20024;-76
2022/06/18 08:34:47;;;;;;;1999.90;999.90;;;40.60;60.90;;;;;;4955496;29;20027;-87
2022/06/18 08:37:13;;;;;;;1999.90;999.90;;;40.60;60.60;;;;;;4955470;29;20034;-76
2022/06/18 08:39:40;;;;;;;1999.90;999.90;;;40.70;61.00;;;;;;4933091;29;20023;-77
2022/06/18 08:42:19;;;;;;;1999.90;999.90;;;40.10;60.70;;;;;;4955055;29;20550;-87
2022/06/18 08:45:08;;;;;;;1999.90;999.90;;;40.40;61.40;;;;;;4955108;29;20015;-85
2022/06/18 08:47:52;;;;;;;1999.90;999.90;;;41.00;61.50;;;;;;4949851;29;20480;-86
2022/06/18 08:50:53;;;;;;;1999.90;999.90;;;41.20;61.20;;;;;;4947676;29;20102;-87
2022/06/18 08:53:21;;;;;;;1999.90;999.90;;;41.30;60.70;;;;;;4954964;29;20132;-76
2022/06/18 08:56:04;;;;;;;1999.90;999.90;;;41.60;60.60;;;;;;4937482;28;20106;-76
2022/06/18 08:58:32;;;;;;;1999.90;999.90;;;42.10;60.80;;;;;;4943747;29;20391;-88
2022/06/18 09:01:30;;;;;;;1999.90;999.90;;;42.50;60.00;;;;;;4954904;29;20023;-76
2022/06/18 09:04:19;;;;;;;1999.90;999.90;;;42.30;59.90;;;;;;4947844;29;20039;-76
2022/06/18 09:07:03;;;;;;;1999.90;999.90;;;41.90;59.90;;;;;;4937218;29;20027;-76
2022/06/18 09:09:54;;;;;;;1999.90;999.90;;;41.70;60.10;;;;;;4954738;29;20435;-85
2022/06/18 09:12:22;;;;;;;1999.90;999.90;;;42.20;59.70;;;;;;4950877;29;20371;-76
2022/06/18 09:14:57;;;;;;;1999.90;999.90;;;42.40;60.20;;;;;;4954881;29;20100;-76
2022/06/18 09:17:48;;;;;;;1999.90;999.90;;;42.80;59.40;;;;;;4954222;29;20110;-76
2022/06/18 09:20:23;;;;;;;1999.90;999.90;;;42.80;59.40;;;;;;4946804;29;20121;-88
2022/06/18 09:22:53;;;;;;;1999.90;999.90;;;42.50;59.20;;;;;;4954340;29;20394;-88
2022/06/18 09:25:23;;;;;;;1999.90;999.90;;;41.90;60.20;;;;;;4954697;29;20031;-76
2022/06/18 09:28:03;;;;;;;1999.90;999.90;;;42.20;59.70;;;;;;4953748;29;20030;-76
2022/06/18 09:30:38;;;;;;;1999.90;999.90;;;42.50;60.80;;;;;;4954685;29;20110;-86
2022/06/18 09:33:25;;;;;;;1999.90;999.90;;;42.20;59.70;;;;;;4954330;29;20035;-88
2022/06/18 09:35:58;;;;;;;1999.90;999.90;;;42.80;60.00;;;;;;4944050;29;20570;-87
2022/06/18 09:38:36;;;;;;;1999.90;999.90;;;41.90;59.20;;;;;;4954366;29;20058;-86
2022/06/18 09:41:11;;;;;;;1999.90;999.90;;;42.10;60.00;;;;;;4954774;29;20027;-88
2022/06/18 09:43:54;;;;;;;1999.90;999.90;;;42.10;59.60;;;;;;4947123;29;20153;-86
2022/06/18 09:46:26;;;;;;;1999.90;999.90;;;42.10;59.30;;;;;;4936119;29;20383;-86
2022/06/18 09:48:53;;;;;;;1999.90;999.90;;;42.20;59.90;;;;;;4954350;29;20030;-87
2022/06/18 09:51:50;;;;;;;1999.90;999.90;;;42.60;59.90;;;;;;4954416;29;20099;-77
2022/06/18 09:54:17;;;;;;;1999.90;999.90;;;42.30;59.70;;;;;;4933892;29;20474;-86
2022/06/18 09:56:47;;;;;;;1999.90;999.90;;;42.80;60.40;;;;;;4958805;29;20054;-87
2022/06/18 09:59:37;;;;;;;1999.90;999.90;;;42.80;59.70;;;;;;4955650;29;20478;-87
2022/06/18 10:02:19;;;;;;;1999.90;999.90;;;42.70;60.20;;;;;;4969796;29;20050;-80
2022/06/18 10:07:31;;;;;;;1999.90;999.90;;;42.30;59.90;;;;;;4955918;28;20045;-85
2022/06/18 10:10:04;;;;;;;1999.90;999.90;;;42.20;59.30;;;;;;4937556;29;20130;-87
2022/06/18 10:12:45;;;;;;;1999.90;999.90;;;42.50;59.40;;;;;;4924438;29;20479;-86
2022/06/18 10:15:14;;;;;;;1999.90;999.90;;;42.20;59.40;;;;;;4957092;29;20446;-84
2022/06/18 10:18:04;;;;;;;1999.90;999.90;;;42.10;59.50;;;;;;4957633;29;20027;-75
2022/06/18 10:20:48;;;;;;;1999.90;999.90;;;42.20;60.10;;;;;;4957852;29;20019;-75
2022/06/18 10:23:47;;;;;;;1999.90;999.90;;;43.00;59.70;;;;;;4957708;29;20027;-75
2022/06/18 10:26:26;;;;;;;1999.90;999.90;;;42.60;60.70;;;;;;4955556;29;20055;-82
2022/06/18 10:29:17;;;;;;;1999.90;999.90;;;42.50;60.20;;;;;;4955638;29;20029;-83
2022/06/18 10:32:17;;;;;;;1999.90;999.90;;;43.00;60.00;;;;;;4955144;29;20069;-76
2022/06/18 10:34:57;;;;;;;1999.90;999.90;;;43.50;59.90;;;;;;4957581;29;20058;-86
2022/06/18 10:37:30;;;;;;;1999.90;999.90;;;43.70;58.70;;;;;;4957147;29;20031;-85
2022/06/18 10:40:32;;;;;;;1999.90;999.90;;;42.40;59.30;;;;;;4953457;29;20090;-88
2022/06/18 10:43:01;;;;;;;1999.90;999.90;;;42.30;60.30;;;;;;4949816;29;20019;-76
2022/06/18 10:45:41;;;;;;;1999.90;999.90;;;42.20;61.10;;;;;;4957043;29;20410;-75
2022/06/18 10:48:23;;;;;;;1999.90;999.90;;;42.00;61.50;;;;;;4953986;29;20027;-76
2022/06/18 10:50:53;;;;;;;1999.90;999.90;;;42.60;60.70;;;;;;4957070;29;20098;-76
2022/06/18 10:53:22;;;;;;;1999.90;999.90;;;42.60;60.10;;;;;;4957156;29;20054;-82
2022/06/18 10:56:14;;;;;;;1999.90;999.90;;;42.90;60.60;;;;;;4957272;29;20031;-81
2022/06/18 10:58:52;;;;;;;1999.90;999.90;;;42.90;59.80;;;;;;4947682;29;20090;-75
2022/06/18 11:01:32;;;;;;;1999.90;999.90;;;43.00;61.20;;;;;;4949830;29;20034;-75
2022/06/18 11:04:05;;;;;;;1999.90;999.90;;;42.70;61.50;;;;;;4949688;29;20038;-83
2022/06/18 11:06:31;;;;;;;1999.90;999.90;;;42.70;61.80;;;;;;4957001;29;20034;-82
2022/06/18 11:09:01;;;;;;;1999.90;999.90;;;42.90;61.00;;;;;;4957100;29;20050;-81
2022/06/18 11:11:32;;;;;;;1999.90;999.90;;;42.50;61.30;;;;;;4950891;29;20019;-81
2022/06/18 11:14:18;;;;;;;1999.90;999.90;;;42.50;61.50;;;;;;4956855;29;20023;-83
2022/06/18 11:16:45;;;;;;;1999.90;999.90;;;43.00;61.20;;;;;;4956776;29;20024;-76
2022/06/18 11:19:35;;;;;;;1999.90;999.90;;;42.90;60.30;;;;;;4956349;28;20542;-82
2022/06/18 11:22:28;;;;;;;1999.90;999.90;;;42.60;59.60;;;;;;4956333;29;20453;-85
2022/06/18 11:25:02;;;;;;;1999.90;999.90;;;42.70;60.00;;;;;;4954954;29;20047;-84
2022/06/18 11:27:31;;;;;;;1999.90;999.90;;;42.50;60.80;;;;;;4955871;29;20463;-85
2022/06/18 11:29:57;;;;;;;1999.90;999.90;;;42.90;59.60;;;;;;4956240;29;20057;-76
2022/06/18 11:32:30;;;;;;;1999.90;999.90;;;42.90;59.50;;;;;;4956422;29;20027;-81
2022/06/18 11:35:32;;;;;;;1999.90;999.90;;;42.50;59.20;;;;;;4956483;29;20031;-77
2022/06/18 11:38:02;;;;;;;1999.90;999.90;;;42.80;58.20;;;;;;4920684;29;20110;-76
2022/06/18 11:40:29;;;;;;;1999.90;999.90;;;42.40;59.30;;;;;;4916173;29;20047;-76
2022/06/18 11:42:58;;;;;;;1999.90;999.90;;;42.30;59.70;;;;;;4916068;29;20092;-76
2022/06/18 11:45:34;;;;;;;1999.90;999.90;;;42.60;59.90;;;;;;4909926;29;20045;-80
2022/06/18 11:48:37;;;;;;;1999.90;999.90;;;42.40;60.10;;;;;;4911305;29;20034;-76
2022/06/18 11:51:39;;;;;;;1999.90;999.90;;;42.50;59.70;;;;;;4899980;29;20103;-83
2022/06/18 11:54:10;;;;;;;;;;;42.80;59.40;;;;;;4916375;29;20545;-76
2022/06/18 11:56:47;;;;;;;1999.90;999.90;;;42.90;59.40;;;;;;4915860;29;19915;-87
2022/06/18 11:59:34;;;;;;;1999.90;999.90;;;43.30;58.90;;;;;;4915525;29;20040;-86
2022/06/18 12:02:08;;;;;;;1999.90;999.90;;;42.70;57.80;;;;;;4899386;29;20036;-77
2022/06/18 12:04:50;;;;;;;1999.90;999.90;;;42.70;58.50;;;;;;4900429;29;20032;-76
2022/06/18 12:07:24;;;;;;;1999.90;999.90;;;42.90;59.10;;;;;;4915762;29;20024;-77
2022/06/18 12:09:51;;;;;;;1999.90;999.90;;;42.60;59.60;;;;;;4898696;29;20051;-86
2022/06/18 12:12:29;;;;;;;1999.90;999.90;;;42.80;58.80;;;;;;4936952;29;20118;-77
2022/06/18 12:15:05;;;;;;;1999.90;999.90;;;42.70;59.30;;;;;;4955934;29;20035;-76
2022/06/18 12:17:47;;;;;;;1999.90;999.90;;;42.10;58.70;;;;;;4963745;29;20135;-76
2022/06/18 12:20:37;;;;;;;1999.90;999.90;;;42.90;58.40;;;;;;4955807;29;20057;-83
2022/06/18 12:23:10;;;;;;;1999.90;999.90;;;43.10;58.20;;;;;;4955230;29;20127;-81
2022/06/18 12:25:54;;;;;;;1999.90;999.90;;;42.90;58.90;;;;;;4938296;29;20463;-84
2022/06/18 12:28:41;;;;;;;1999.90;999.90;;;43.30;58.20;;;;;;4937601;29;20030;-86
2022/06/18 12:31:42;;;;;;;1999.90;999.90;;;42.70;57.70;;;;;;4954943;28;20055;-77
2022/06/18 12:34:22;;;;;;;1999.90;999.90;;;42.80;58.00;;;;;;4955115;29;20034;-77
2022/06/18 12:37:16;;;;;;;1999.90;999.90;;;42.60;58.30;;;;;;4948281;29;20110;-77